Time;durP1;ratioP1;P1;durP2;ratioP2;P2;SDS_P1;SDS_P2;PMS_P1;PMS_P2;Temp;Humidity;BMP_temperature;BMP_pressure;BME280_temperature;BME280_humidity;BME280_pressure;Samples;Min_cycle;Max_cycle;Signal;HPM_P1;HPM_P2
2024/01/22 00:01:38;;;;;;;11.40;3.60;;;1.80;1.00;;;;;;4935395;29;20181;-70
2024/01/22 00:04:04;;;;;;;5.30;2.88;;;1.80;1.00;;;;;;4935243;29;20206;-69
2024/01/22 00:06:29;;;;;;;4.40;2.80;;;1.90;1.00;;;;;;4935596;29;20641;-71
2024/01/22 00:08:55;;;;;;;5.67;3.07;;;2.00;1.00;;;;;;4935802;29;20233;-72
2024/01/22 00:11:21;;;;;;;6.47;3.47;;;2.00;1.00;;;;;;4935482;29;20216;-73
2024/01/22 00:13:46;;;;;;;3.70;3.10;;;2.00;1.00;;;;;;4936204;29;20487;-69
2024/01/22 00:16:12;;;;;;;8.30;4.40;;;1.90;1.00;;;;;;4937534;29;20189;-70
2024/01/22 00:18:38;;;;;;;7.00;4.70;;;1.90;1.00;;;;;;4935191;29;20649;-69
2024/01/22 00:21:04;;;;;;;5.93;4.23;;;1.90;1.00;;;;;;4934441;29;20435;-69
2024/01/22 00:23:30;;;;;;;6.23;3.10;;;1.90;1.00;;;;;;4935268;29;20451;-70
2024/01/22 00:25:55;;;;;;;4.30;3.00;;;1.80;1.00;;;;;;4934928;29;20432;-72
2024/01/22 00:28:21;;;;;;;5.10;3.97;;;1.80;1.00;;;;;;4935116;29;20201;-70
2024/01/22 00:30:46;;;;;;;4.90;3.10;;;1.80;1.00;;;;;;4933549;29;20215;-70
2024/01/22 00:33:12;;;;;;;6.40;5.17;;;1.80;1.00;;;;;;4935025;29;20204;-70
2024/01/22 00:35:37;;;;;;;4.80;3.90;;;1.80;1.00;;;;;;4935230;29;20180;-71
2024/01/22 00:38:03;;;;;;;4.63;2.87;;;1.90;1.00;;;;;;4935963;29;20575;-70
2024/01/22 00:40:29;;;;;;;3.60;3.20;;;1.90;1.00;;;;;;4935450;29;20216;-71
2024/01/22 00:42:54;;;;;;;5.13;2.40;;;1.90;1.00;;;;;;4942176;29;20204;-70
2024/01/22 00:45:20;;;;;;;4.20;3.43;;;1.90;1.00;;;;;;4943945;29;20196;-72
2024/01/22 00:47:45;;;;;;;4.23;3.37;;;2.00;1.00;;;;;;4944061;29;20186;-69
2024/01/22 00:50:11;;;;;;;6.40;4.13;;;2.00;1.00;;;;;;4942857;29;20586;-70
2024/01/22 00:52:36;;;;;;;5.90;4.40;;;2.10;1.00;;;;;;4943284;29;20245;-69
2024/01/22 00:55:02;;;;;;;4.23;2.90;;;2.10;1.00;;;;;;4942849;29;20182;-71
2024/01/22 00:57:28;;;;;;;4.18;3.00;;;2.10;1.00;;;;;;4942393;29;20185;-71
2024/01/22 00:59:53;;;;;;;5.20;3.90;;;2.20;1.00;;;;;;4943366;29;20628;-70
2024/01/22 01:02:19;;;;;;;5.07;3.33;;;2.30;1.00;;;;;;4971509;23;20254;-70
2024/01/22 01:04:44;;;;;;;5.00;2.90;;;2.30;1.00;;;;;;4975527;28;20199;-70
2024/01/22 01:07:12;;;;;;;5.50;4.30;;;2.30;1.00;;;;;;4976902;28;20201;-70
2024/01/22 01:09:38;;;;;;;4.03;3.35;;;2.20;1.00;;;;;;4974416;28;20721;-69
2024/01/22 01:12:04;;;;;;;3.50;2.57;;;2.20;1.00;;;;;;4975666;28;20200;-69
2024/01/22 01:14:29;;;;;;;4.70;3.50;;;2.20;1.00;;;;;;4975794;28;20183;-69
2024/01/22 01:16:55;;;;;;;3.10;2.67;;;2.20;1.00;;;;;;4976438;28;20913;-69
2024/01/22 01:19:21;;;;;;;3.70;3.00;;;2.20;1.00;;;;;;4974868;28;20279;-69
2024/01/22 01:21:46;;;;;;;5.03;3.03;;;2.20;1.00;;;;;;4975900;28;20186;-69
2024/01/22 01:24:12;;;;;;;4.47;3.10;;;2.30;1.00;;;;;;4973887;28;20662;-69
2024/01/22 01:26:42;;;;;;;6.40;4.27;;;2.30;1.00;;;;;;4975540;28;20180;-68
2024/01/22 01:29:08;;;;;;;4.30;2.85;;;2.30;1.00;;;;;;4975781;28;20717;-69
2024/01/22 01:31:34;;;;;;;3.73;3.30;;;2.30;1.00;;;;;;4975181;28;20170;-69
2024/01/22 01:33:59;;;;;;;7.77;3.47;;;2.30;1.00;;;;;;4973783;28;20510;-69
2024/01/22 01:36:25;;;;;;;4.67;3.27;;;2.30;1.00;;;;;;4975049;28;20176;-70
2024/01/22 01:38:50;;;;;;;3.83;3.20;;;2.40;1.00;;;;;;4975813;28;20272;-70
2024/01/22 01:41:16;;;;;;;3.60;2.87;;;2.40;1.00;;;;;;4975535;28;20190;-69
2024/01/22 01:43:41;;;;;;;4.73;2.70;;;2.50;1.00;;;;;;4973836;28;20200;-69
2024/01/22 01:46:07;;;;;;;5.13;2.97;;;2.50;1.00;;;;;;4976253;28;20587;-69
2024/01/22 01:48:33;;;;;;;5.60;3.40;;;2.50;1.00;;;;;;4974715;28;20324;-67
2024/01/22 01:51:00;;;;;;;4.33;3.30;;;2.60;1.00;;;;;;4975048;28;20431;-68
2024/01/22 01:53:27;;;;;;;3.22;2.85;;;2.60;1.00;;;;;;4975795;28;20196;-69
2024/01/22 01:55:53;;;;;;;2.40;1.70;;;2.60;1.00;;;;;;4975823;28;20195;-69
2024/01/22 01:58:20;;;;;;;5.30;3.22;;;2.60;1.00;;;;;;4975790;28;20448;-69
2024/01/22 02:00:49;;;;;;;6.03;2.63;;;2.60;1.00;;;;;;4976950;28;20594;-68
2024/01/22 02:03:14;;;;;;;4.78;3.00;;;2.60;1.00;;;;;;4974750;28;20463;-68
2024/01/22 02:05:40;;;;;;;5.40;3.70;;;2.60;1.00;;;;;;4974389;28;20268;-69
2024/01/22 02:08:06;;;;;;;3.97;2.90;;;2.80;1.00;;;;;;4975618;28;20180;-69
2024/01/22 02:10:32;;;;;;;4.70;2.53;;;2.80;1.00;;;;;;4973247;28;20306;-69
2024/01/22 02:12:57;;;;;;;3.47;3.17;;;2.80;1.00;;;;;;4974046;28;21011;-68
2024/01/22 02:15:23;;;;;;;6.37;2.70;;;2.80;1.00;;;;;;4971916;28;20224;-69
2024/01/22 02:17:49;;;;;;;6.17;4.67;;;2.80;1.00;;;;;;4973524;28;20220;-70
2024/01/22 02:20:14;;;;;;;3.50;2.40;;;2.80;1.00;;;;;;4973291;28;20191;-68
2024/01/22 02:22:40;;;;;;;5.23;3.53;;;2.80;1.00;;;;;;4975993;28;20204;-68
2024/01/22 02:25:06;;;;;;;3.63;2.93;;;2.80;1.00;;;;;;4977133;28;20555;-69
2024/01/22 02:27:31;;;;;;;5.80;3.13;;;2.70;1.00;;;;;;4977637;28;20239;-68
2024/01/22 02:29:57;;;;;;;5.50;2.70;;;2.70;1.00;;;;;;4977348;28;20461;-69
2024/01/22 02:32:22;;;;;;;3.73;2.70;;;2.70;1.00;;;;;;4977356;28;20566;-69
2024/01/22 02:34:48;;;;;;;6.17;2.63;;;2.60;1.00;;;;;;4977025;28;20272;-69
2024/01/22 02:37:15;;;;;;;7.00;3.50;;;2.50;1.00;;;;;;4976737;28;20538;-69
2024/01/22 02:39:41;;;;;;;5.88;3.08;;;2.40;1.00;;;;;;4976929;28;20230;-68
2024/01/22 02:42:06;;;;;;;4.90;3.87;;;2.40;1.00;;;;;;4976985;28;20558;-69
2024/01/22 02:44:34;;;;;;;5.50;3.80;;;2.20;1.00;;;;;;4977050;28;20552;-69
2024/01/22 02:47:00;;;;;;;5.68;3.80;;;2.00;1.00;;;;;;4978621;28;20449;-69
2024/01/22 02:49:26;;;;;;;4.10;3.50;;;1.90;1.00;;;;;;4977266;28;20615;-69
2024/01/22 02:51:52;;;;;;;5.65;4.45;;;1.80;1.00;;;;;;4977416;28;20280;-68
2024/01/22 02:54:17;;;;;;;5.23;4.50;;;1.70;1.00;;;;;;4977044;28;20217;-69
2024/01/22 02:56:43;;;;;;;6.23;4.20;;;1.60;1.00;;;;;;4977393;28;20256;-69
2024/01/22 02:59:09;;;;;;;5.00;4.50;;;1.50;1.00;;;;;;4975808;28;20589;-67
2024/01/22 03:01:34;;;;;;;7.67;4.90;;;1.50;1.00;;;;;;4979721;28;20554;-68
2024/01/22 03:04:00;;;;;;;6.37;4.80;;;1.30;1.00;;;;;;4978255;28;20220;-68
2024/01/22 03:06:25;;;;;;;6.00;4.63;;;1.20;1.00;;;;;;4980604;28;20250;-68
2024/01/22 03:08:51;;;;;;;6.40;4.33;;;1.00;1.00;;;;;;4978879;28;20199;-68
2024/01/22 03:11:17;;;;;;;8.27;4.03;;;0.90;1.00;;;;;;4979592;28;20424;-68
2024/01/22 03:13:43;;;;;;;4.60;3.37;;;0.90;1.00;;;;;;4980602;28;20200;-68
2024/01/22 03:16:08;;;;;;;6.37;3.70;;;0.80;1.00;;;;;;4980308;28;20175;-68
2024/01/22 03:18:34;;;;;;;5.87;4.73;;;0.80;1.00;;;;;;4979634;28;20190;-68
2024/01/22 03:21:03;;;;;;;5.13;4.63;;;0.70;1.00;;;;;;4980043;28;20647;-68
2024/01/22 03:23:28;;;;;;;5.22;3.78;;;0.60;1.00;;;;;;4981003;28;20193;-68
2024/01/22 03:25:54;;;;;;;6.67;4.30;;;0.60;1.00;;;;;;4979939;28;20185;-68
2024/01/22 03:28:21;;;;;;;4.90;3.67;;;0.50;1.00;;;;;;4981116;28;20189;-68
2024/01/22 03:30:46;;;;;;;5.03;4.18;;;0.50;1.00;;;;;;4979452;28;20697;-68
2024/01/22 03:33:12;;;;;;;8.47;4.70;;;0.50;1.00;;;;;;4978309;28;20203;-70
2024/01/22 03:35:37;;;;;;;7.20;4.40;;;0.50;1.00;;;;;;4978633;28;20186;-68
2024/01/22 03:38:03;;;;;;;10.03;6.37;;;0.50;1.00;;;;;;4979119;28;20237;-69
2024/01/22 03:40:29;;;;;;;15.80;6.00;;;0.40;1.00;;;;;;4978691;28;20274;-68
2024/01/22 03:42:54;;;;;;;12.70;6.90;;;0.40;1.00;;;;;;4978563;28;20268;-67
2024/01/22 03:45:20;;;;;;;9.37;5.77;;;0.40;1.00;;;;;;4978182;28;20181;-68
2024/01/22 03:47:45;;;;;;;6.30;4.80;;;0.50;1.00;;;;;;4978282;28;20192;-68
2024/01/22 03:50:11;;;;;;;5.47;4.37;;;0.60;1.00;;;;;;4978071;28;20201;-68
2024/01/22 03:52:36;;;;;;;8.40;4.60;;;0.70;1.00;;;;;;4976515;28;20204;-68
2024/01/22 03:55:02;;;;;;;5.70;4.10;;;0.80;1.00;;;;;;4977829;28;20191;-68
2024/01/22 03:57:28;;;;;;;3.53;3.20;;;1.00;1.00;;;;;;4978190;28;20192;-68
2024/01/22 03:59:53;;;;;;;3.70;2.60;;;1.20;1.00;;;;;;4978629;28;20221;-68
2024/01/22 04:02:19;;;;;;;4.50;3.57;;;1.50;1.00;;;;;;4976863;28;20309;-68
2024/01/22 04:04:44;;;;;;;6.13;3.77;;;1.70;1.00;;;;;;4977041;28;20269;-69
2024/01/22 04:07:10;;;;;;;6.00;3.83;;;1.90;1.00;;;;;;4977526;28;20187;-69
2024/01/22 04:09:36;;;;;;;6.67;2.97;;;2.10;1.00;;;;;;4977364;28;20262;-68
2024/01/22 04:12:03;;;;;;;4.72;2.95;;;2.20;1.00;;;;;;4976587;28;20200;-68
2024/01/22 04:14:29;;;;;;;6.17;4.03;;;2.30;1.00;;;;;;4978174;28;20613;-67
2024/01/22 04:16:54;;;;;;;4.40;2.77;;;2.50;1.00;;;;;;4978202;28;20444;-67
2024/01/22 04:19:20;;;;;;;4.60;3.33;;;2.60;1.00;;;;;;4977296;28;20267;-68
2024/01/22 04:21:47;;;;;;;4.20;3.20;;;2.70;1.00;;;;;;4976981;28;20204;-68
2024/01/22 04:24:13;;;;;;;7.87;3.40;;;2.80;1.00;;;;;;4976977;28;20466;-67
2024/01/22 04:26:38;;;;;;;4.73;2.93;;;2.90;1.00;;;;;;4977987;28;20420;-68
2024/01/22 04:29:04;;;;;;;4.90;3.77;;;2.90;1.00;;;;;;4976557;28;20507;-68
2024/01/22 04:31:30;;;;;;;6.03;3.50;;;3.00;1.00;;;;;;4976891;28;20169;-68
2024/01/22 04:33:55;;;;;;;4.60;2.93;;;3.00;1.00;;;;;;4976519;28;20441;-68
2024/01/22 04:36:21;;;;;;;6.83;2.93;;;3.10;1.00;;;;;;4977125;28;20181;-68
2024/01/22 04:38:47;;;;;;;4.50;2.93;;;3.10;1.00;;;;;;4976890;28;20256;-68
2024/01/22 04:41:12;;;;;;;9.00;2.97;;;3.20;1.00;;;;;;4977922;28;20656;-67
2024/01/22 04:43:39;;;;;;;8.70;3.53;;;3.20;1.00;;;;;;4976472;28;20204;-67
2024/01/22 04:46:04;;;;;;;6.93;3.00;;;3.30;1.00;;;;;;4976348;28;20190;-68
2024/01/22 04:48:30;;;;;;;6.17;3.10;;;3.30;1.00;;;;;;4977407;28;20420;-68
2024/01/22 04:50:55;;;;;;;5.03;3.47;;;3.40;1.00;;;;;;4977487;28;20247;-68
2024/01/22 04:53:21;;;;;;;3.97;3.13;;;3.40;1.00;;;;;;4977772;28;20687;-69
2024/01/22 04:55:46;;;;;;;5.43;3.50;;;3.40;1.00;;;;;;4976609;28;20206;-68
2024/01/22 04:58:12;;;;;;;6.07;3.40;;;3.40;1.00;;;;;;4975132;28;20195;-68
2024/01/22 05:00:38;;;;;;;5.20;3.23;;;3.50;1.00;;;;;;4975453;28;20648;-68
2024/01/22 05:03:04;;;;;;;5.17;3.23;;;3.50;1.00;;;;;;4974469;28;20555;-68
2024/01/22 05:05:31;;;;;;;3.97;3.13;;;3.50;1.00;;;;;;4975652;28;20211;-68
2024/01/22 05:07:57;;;;;;;4.17;3.10;;;3.50;1.00;;;;;;4975399;28;20526;-68
2024/01/22 05:10:22;;;;;;;4.80;3.23;;;3.50;1.00;;;;;;4975064;28;20499;-68
2024/01/22 05:12:48;;;;;;;5.10;3.60;;;3.50;1.00;;;;;;4975117;28;20618;-68
2024/01/22 05:15:14;;;;;;;5.67;3.13;;;3.60;1.00;;;;;;4976063;28;20604;-69
2024/01/22 05:17:40;;;;;;;5.67;4.00;;;3.60;1.00;;;;;;4977440;28;20177;-67
2024/01/22 05:20:06;;;;;;;8.93;4.20;;;3.60;1.00;;;;;;4976961;28;20189;-67
2024/01/22 05:22:33;;;;;;;4.70;3.50;;;3.70;1.00;;;;;;4977803;28;20470;-68
2024/01/22 05:24:58;;;;;;;6.17;4.10;;;3.70;1.00;;;;;;4976940;28;20918;-68
2024/01/22 05:27:24;;;;;;;5.30;3.47;;;3.70;1.00;;;;;;4977552;28;20507;-68
2024/01/22 05:29:50;;;;;;;5.03;3.97;;;3.80;1.00;;;;;;4977147;28;20208;-68
2024/01/22 05:32:15;;;;;;;4.50;3.70;;;3.90;1.00;;;;;;4976922;28;20445;-68
2024/01/22 05:34:41;;;;;;;5.77;3.63;;;3.90;1.00;;;;;;4976096;28;20189;-68
2024/01/22 05:37:07;;;;;;;7.10;4.10;;;4.00;1.00;;;;;;4975651;28;20189;-71
2024/01/22 05:39:32;;;;;;;5.83;4.07;;;4.00;1.00;;;;;;4975758;28;20181;-69
2024/01/22 05:41:58;;;;;;;4.13;3.23;;;3.90;1.00;;;;;;4973912;28;20261;-67
2024/01/22 05:44:25;;;;;;;5.93;3.67;;;4.00;1.00;;;;;;4970268;28;20193;-68
2024/01/22 05:46:50;;;;;;;4.80;3.70;;;3.90;1.00;;;;;;4975512;28;20736;-69
2024/01/22 05:49:18;;;;;;;5.17;3.33;;;4.00;1.00;;;;;;4975275;28;20484;-69
2024/01/22 05:51:44;;;;;;;4.63;2.50;;;4.10;1.00;;;;;;4974978;28;20181;-69
2024/01/22 05:54:09;;;;;;;5.53;4.13;;;4.10;1.00;;;;;;4976462;28;20998;-68
2024/01/22 05:56:35;;;;;;;5.53;3.43;;;4.20;1.00;;;;;;4977181;28;20182;-67
2024/01/22 05:59:00;;;;;;;7.53;3.43;;;4.20;1.00;;;;;;4977743;28;20181;-69
2024/01/22 06:01:29;;;;;;;3.73;2.83;;;4.30;1.00;;;;;;4977072;28;20546;-67
2024/01/22 06:03:54;;;;;;;3.63;3.17;;;4.40;1.00;;;;;;4976423;28;20224;-68
2024/01/22 06:06:20;;;;;;;6.07;3.50;;;4.50;1.00;;;;;;4976939;28;20795;-69
2024/01/22 06:08:48;;;;;;;5.10;3.83;;;4.50;1.00;;;;;;4976569;28;20675;-69
2024/01/22 06:11:15;;;;;;;4.57;3.70;;;4.60;1.00;;;;;;4976562;28;20790;-69
2024/01/22 06:13:42;;;;;;;4.27;3.47;;;4.70;1.00;;;;;;4976267;28;20451;-69
2024/01/22 06:16:14;;;;;;;6.03;3.77;;;4.70;1.00;;;;;;4976741;28;20420;-69
2024/01/22 06:18:41;;;;;;;5.13;3.63;;;4.80;1.00;;;;;;4976389;28;20425;-68
2024/01/22 06:21:08;;;;;;;7.20;2.93;;;4.80;1.00;;;;;;4976694;28;20421;-70
2024/01/22 06:23:34;;;;;;;7.53;3.50;;;4.80;1.00;;;;;;4976955;28;20440;-68
2024/01/22 06:26:00;;;;;;;7.33;3.73;;;4.80;1.00;;;;;;4975220;28;20925;-69
2024/01/22 06:28:27;;;;;;;5.43;3.30;;;4.80;1.00;;;;;;4978027;28;20512;-70
2024/01/22 06:30:54;;;;;;;3.77;2.97;;;4.80;1.00;;;;;;4981248;28;20460;-70
2024/01/22 06:33:20;;;;;;;4.77;2.97;;;4.90;1.00;;;;;;4980258;28;20441;-70
2024/01/22 06:35:46;;;;;;;6.87;3.60;;;4.90;1.00;;;;;;4978477;28;20471;-71
2024/01/22 06:38:12;;;;;;;6.33;3.40;;;4.90;1.00;;;;;;4979206;28;20432;-69
2024/01/22 06:40:38;;;;;;;4.60;3.27;;;4.90;1.00;;;;;;4980784;28;20935;-68
2024/01/22 06:43:04;;;;;;;3.87;3.20;;;5.00;1.00;;;;;;4979540;28;20444;-69
2024/01/22 06:45:29;;;;;;;3.87;2.90;;;5.10;1.00;;;;;;4977746;28;20187;-68
2024/01/22 06:47:55;;;;;;;5.40;3.50;;;5.30;1.00;;;;;;4978423;28;20426;-68
2024/01/22 06:50:22;;;;;;;5.10;3.97;;;5.40;1.00;;;;;;4978641;28;20214;-68
2024/01/22 06:52:48;;;;;;;5.83;3.90;;;5.60;1.00;;;;;;4978693;28;20190;-68
2024/01/22 06:55:14;;;;;;;5.30;3.70;;;5.60;1.00;;;;;;4978474;28;20440;-68
2024/01/22 06:57:39;;;;;;;7.50;3.57;;;5.60;1.00;;;;;;4978523;28;20419;-69
2024/01/22 07:00:09;;;;;;;4.70;3.20;;;5.60;1.00;;;;;;4978532;28;20186;-68
2024/01/22 07:02:37;;;;;;;5.10;3.30;;;5.60;1.00;;;;;;4978262;28;20226;-68
2024/01/22 07:05:06;;;;;;;3.27;2.30;;;5.60;1.00;;;;;;4976698;28;20422;-67
2024/01/22 07:07:32;;;;;;;2.70;2.30;;;5.70;1.00;;;;;;4976232;28;20905;-68
2024/01/22 07:09:58;;;;;;;3.73;2.60;;;5.90;1.00;;;;;;4976914;28;20552;-69
2024/01/22 07:12:24;;;;;;;4.00;3.20;;;6.20;1.00;;;;;;4975462;28;20204;-68
2024/01/22 07:14:50;;;;;;;4.60;3.20;;;6.20;1.00;;;;;;4976174;28;20420;-66
2024/01/22 07:17:17;;;;;;;2.60;2.03;;;6.40;1.00;;;;;;4975443;28;20786;-70
2024/01/22 07:19:43;;;;;;;7.10;3.23;;;6.60;1.00;;;;;;4975393;28;20204;-67
2024/01/22 07:22:09;;;;;;;3.50;2.43;;;6.80;1.00;;;;;;4976448;28;20454;-68
2024/01/22 07:24:35;;;;;;;5.90;2.47;;;7.00;1.00;;;;;;4976789;28;20428;-70
2024/01/22 07:27:01;;;;;;;3.00;1.80;;;7.30;1.00;;;;;;4977444;28;20240;-69
2024/01/22 07:29:26;;;;;;;3.20;2.33;;;7.60;1.00;;;;;;4977661;28;20865;-70
2024/01/22 07:31:52;;;;;;;2.53;2.00;;;7.90;1.00;;;;;;4977770;28;20192;-69
2024/01/22 07:34:17;;;;;;;2.90;1.80;;;8.20;1.00;;;;;;4979641;28;20177;-70
2024/01/22 07:36:43;;;;;;;2.27;1.50;;;;;;;;;;4979707;28;20667;-69
2024/01/22 07:39:11;;;;;;;2.63;2.17;;;;;;;;;;4978403;28;20178;-69
2024/01/22 07:41:38;;;;;;;3.73;1.90;;;;;;;;;;4978572;28;20916;-69
2024/01/22 07:44:04;;;;;;;2.10;1.60;;;;;;;;;;4977853;28;20441;-70
2024/01/22 07:46:30;;;;;;;3.90;1.97;;;9.80;1.00;;;;;;4971895;28;20804;-70
2024/01/22 07:48:56;;;;;;;1.97;1.60;;;9.80;1.00;;;;;;4968434;28;20430;-70
2024/01/22 07:51:22;;;;;;;1.90;1.70;;;9.70;1.00;;;;;;4957408;28;20179;-68
2024/01/22 07:53:47;;;;;;;2.37;1.60;;;9.70;1.00;;;;;;4956591;28;20476;-69
2024/01/22 07:56:13;;;;;;;1.80;1.30;;;9.80;1.00;;;;;;4969242;28;20453;-70
2024/01/22 07:58:39;;;;;;;2.17;1.60;;;9.80;1.00;;;;;;4963817;28;20196;-70
2024/01/22 08:01:05;;;;;;;2.20;1.57;;;9.80;1.00;;;;;;4974522;28;20189;-70
2024/01/22 08:03:31;;;;;;;1.80;1.30;;;10.00;1.00;;;;;;4971054;28;20544;-69
2024/01/22 08:05:58;;;;;;;2.00;1.33;;;10.10;1.00;;;;;;4968782;28;20430;-69
2024/01/22 08:08:24;;;;;;;2.67;1.23;;;10.20;1.00;;;;;;4955599;28;20181;-69
2024/01/22 08:10:49;;;;;;;2.00;1.40;;;10.20;1.00;;;;;;4960716;28;20480;-68
2024/01/22 08:13:15;;;;;;;1.60;1.13;;;10.20;1.00;;;;;;4971753;28;20960;-70
2024/01/22 08:15:41;;;;;;;2.47;1.40;;;10.30;1.00;;;;;;4962383;28;20590;-68
2024/01/22 08:18:07;;;;;;;2.30;1.10;;;10.40;1.00;;;;;;4971266;28;20660;-68
2024/01/22 08:20:32;;;;;;;1.70;1.10;;;10.40;1.00;;;;;;4966501;28;20467;-68
2024/01/22 08:22:58;;;;;;;1.80;1.17;;;10.50;1.00;;;;;;4952940;28;20216;-69
2024/01/22 08:25:28;;;;;;;1.60;0.90;;;10.60;1.00;;;;;;4953478;28;20201;-71
2024/01/22 08:27:54;;;;;;;3.83;1.60;;;10.60;1.00;;;;;;4953172;28;20272;-69
2024/01/22 08:30:20;;;;;;;1.80;1.03;;;10.50;1.00;;;;;;4966527;28;20527;-69
2024/01/22 08:32:46;;;;;;;1.87;1.10;;;10.60;1.00;;;;;;4970376;28;20445;-68
2024/01/22 08:35:12;;;;;;;2.40;1.20;;;10.60;1.00;;;;;;4972728;28;20416;-68
2024/01/22 08:37:39;;;;;;;1.90;1.20;;;10.70;1.00;;;;;;4968812;28;20213;-69
2024/01/22 08:40:06;;;;;;;3.40;2.03;;;10.80;1.00;;;;;;4966134;28;20181;-68
2024/01/22 08:42:34;;;;;;;4.23;1.80;;;10.90;1.00;;;;;;4963282;28;20481;-68
2024/01/22 08:45:01;;;;;;;2.33;1.10;;;10.90;1.00;;;;;;4961998;28;20421;-69
2024/01/22 08:47:26;;;;;;;2.00;1.13;;;10.90;1.00;;;;;;4961795;28;20978;-68
2024/01/22 08:49:52;;;;;;;1.60;0.90;;;10.90;1.90;;;;;;4962290;28;20499;-69
2024/01/22 08:52:17;;;;;;;1.90;1.10;;;10.90;4.30;;;;;;4963443;28;20589;-69
2024/01/22 08:54:43;;;;;;;1.93;0.97;;;10.90;2.40;;;;;;4955977;28;20182;-69
2024/01/22 08:57:08;;;;;;;1.87;1.00;;;10.90;3.20;;;;;;4966399;28;20208;-69
2024/01/22 08:59:34;;;;;;;1.70;0.70;;;;;;;;;;4974116;28;20678;-70
2024/01/22 09:02:00;;;;;;;1.90;0.70;;;;;;;;;;4973194;28;20204;-70
2024/01/22 09:04:26;;;;;;;1.67;0.67;;;11.00;8.20;;;;;;4972208;28;20436;-70
2024/01/22 09:06:51;;;;;;;1.80;0.80;;;11.10;1.20;;;;;;4973911;28;20521;-68
2024/01/22 09:09:18;;;;;;;1.70;0.63;;;11.10;1.00;;;;;;4973616;28;20207;-69
2024/01/22 09:11:44;;;;;;;1.90;0.70;;;11.10;1.00;;;;;;4965328;28;20218;-68
2024/01/22 09:14:09;;;;;;;1.80;0.77;;;11.10;1.00;;;;;;4954301;28;20468;-68
2024/01/22 09:16:35;;;;;;;1.70;0.70;;;11.20;1.00;;;;;;4953267;28;20272;-69
2024/01/22 09:19:00;;;;;;;1.67;0.80;;;11.20;1.00;;;;;;4953058;29;20239;-69
2024/01/22 09:21:26;;;;;;;2.20;0.80;;;11.30;1.00;;;;;;4954457;28;20657;-67
2024/01/22 09:23:51;;;;;;;1.90;0.77;;;11.40;1.00;;;;;;4953472;28;20201;-68
2024/01/22 09:26:17;;;;;;;1.70;0.90;;;11.50;1.00;;;;;;4953942;29;20176;-68
2024/01/22 09:28:43;;;;;;;2.83;0.83;;;11.50;8.50;;;;;;4952570;29;20679;-68
2024/01/22 09:31:08;;;;;;;2.00;0.90;;;11.60;10.90;;;;;;4953984;28;20301;-67
2024/01/22 09:33:34;;;;;;;1.73;0.73;;;11.70;10.80;;;;;;4953956;29;20205;-67
2024/01/22 09:36:03;;;;;;;1.70;0.70;;;;;;;;;;4953808;29;20264;-68
2024/01/22 09:38:29;;;;;;;1.73;1.00;;;11.70;2.50;;;;;;4954333;28;20188;-69
2024/01/22 09:40:54;;;;;;;1.60;0.70;;;11.90;1.00;;;;;;4954348;29;20422;-68
2024/01/22 09:43:20;;;;;;;1.53;0.70;;;12.10;1.00;;;;;;4954413;29;20204;-65
2024/01/22 09:45:49;;;;;;;1.80;0.90;;;12.30;1.00;;;;;;4954391;28;20182;-68
2024/01/22 09:48:16;;;;;;;1.80;0.80;;;12.50;1.00;;;;;;4954104;28;20185;-69
2024/01/22 09:50:41;;;;;;;2.10;0.80;;;12.80;1.00;;;;;;4953685;28;20940;-68
2024/01/22 09:53:11;;;;;;;2.77;0.80;;;13.00;1.00;;;;;;4953629;28;20477;-68
2024/01/22 09:55:42;;;;;;;2.10;1.20;;;13.10;1.00;;;;;;4953749;28;20253;-67
2024/01/22 09:58:10;;;;;;;3.27;0.90;;;13.20;1.00;;;;;;4950403;28;20433;-67
2024/01/22 10:00:38;;;;;;;1.90;0.93;;;13.40;1.00;;;;;;4962172;28;20436;-68
2024/01/22 10:03:04;;;;;;;1.70;0.90;;;13.60;1.00;;;;;;4968949;28;20860;-70
2024/01/22 10:05:30;;;;;;;7.83;0.87;;;13.60;1.00;;;;;;4969068;28;20427;-69
2024/01/22 10:07:56;;;;;;;2.00;1.03;;;13.50;1.00;;;;;;4968565;28;20205;-69
2024/01/22 10:10:21;;;;;;;5.60;1.17;;;13.60;1.00;;;;;;4969212;28;20496;-70
2024/01/22 10:13:00;;;;;;;1.60;0.80;;;13.70;1.00;;;;;;4967186;28;20201;-67
2024/01/22 10:15:27;;;;;;;3.73;1.20;;;13.50;1.00;;;;;;4969152;28;20616;-68
2024/01/22 10:17:53;;;;;;;1.80;0.87;;;13.60;1.00;;;;;;4968364;28;20484;-68
2024/01/22 10:20:23;;;;;;;1.73;0.80;;;13.70;1.00;;;;;;4969390;28;20924;-69
2024/01/22 10:22:58;;;;;;;1.90;1.00;;;13.40;1.00;;;;;;4969814;28;20449;-69
2024/01/22 10:25:24;;;;;;;2.57;1.10;;;13.40;1.00;;;;;;4969650;28;20443;-70
2024/01/22 10:27:49;;;;;;;2.37;1.07;;;13.20;1.00;;;;;;4967503;28;20776;-68
2024/01/22 10:30:17;;;;;;;1.80;1.00;;;13.20;1.00;;;;;;4968902;28;20213;-68
2024/01/22 10:32:42;;;;;;;1.80;0.93;;;13.30;1.00;;;;;;4961111;28;20193;-67
2024/01/22 10:35:26;;;;;;;2.17;0.93;;;13.30;1.00;;;;;;4967940;28;20426;-70
2024/01/22 10:38:08;;;;;;;2.27;1.10;;;13.20;1.00;;;;;;4957426;28;20261;-68
2024/01/22 10:40:34;;;;;;;2.10;1.00;;;13.10;1.00;;;;;;4974400;28;20491;-68
2024/01/22 10:42:59;;;;;;;2.30;0.90;;;13.00;1.00;;;;;;4975411;28;20441;-68
2024/01/22 10:45:30;;;;;;;1.80;1.00;;;13.10;1.00;;;;;;4977515;28;20527;-67
2024/01/22 10:47:56;;;;;;;2.53;1.07;;;13.00;1.00;;;;;;4975701;28;20178;-68
2024/01/22 10:50:22;;;;;;;1.90;0.93;;;13.00;1.00;;;;;;4974089;28;21109;-69
2024/01/22 10:52:49;;;;;;;2.27;1.03;;;13.00;1.00;;;;;;4958141;28;20194;-69
2024/01/22 10:55:15;;;;;;;2.00;1.00;;;13.00;1.00;;;;;;4957915;29;20461;-72
2024/01/22 10:57:43;;;;;;;1.90;0.77;;;13.00;1.00;;;;;;4958191;28;20441;-69
2024/01/22 11:00:14;;;;;;;2.97;1.60;;;12.90;1.00;;;;;;4977600;28;20215;-69
2024/01/22 11:02:44;;;;;;;2.10;0.70;;;12.90;1.00;;;;;;4977684;28;20550;-68
2024/01/22 11:05:14;;;;;;;2.80;0.77;;;13.00;1.00;;;;;;4975042;28;20429;-68
2024/01/22 11:07:41;;;;;;;2.23;1.00;;;12.90;1.00;;;;;;4976776;28;20905;-67
2024/01/22 11:10:10;;;;;;;2.57;1.20;;;12.90;1.00;;;;;;4976165;28;20928;-68
2024/01/22 11:12:48;;;;;;;2.03;0.83;;;12.90;1.00;;;;;;4977966;28;20535;-68
2024/01/22 11:15:13;;;;;;;1.70;0.70;;;12.80;1.00;;;;;;4976987;28;20545;-71
2024/01/22 11:17:39;;;;;;;2.80;0.87;;;12.90;1.00;;;;;;4976014;28;20430;-70
2024/01/22 11:20:23;;;;;;;2.30;0.90;;;12.90;1.00;;;;;;4970192;28;20200;-69
2024/01/22 11:23:00;;;;;;;1.50;0.60;;;13.10;1.00;;;;;;4976189;28;20223;-68
2024/01/22 11:25:25;;;;;;;1.80;0.60;;;13.10;1.00;;;;;;4976158;28;20931;-68
2024/01/22 11:28:02;;;;;;;1.50;0.60;;;13.20;1.00;;;;;;4977540;28;20483;-68
2024/01/22 11:30:30;;;;;;;1.70;0.80;;;13.20;1.00;;;;;;4976985;28;20209;-67
2024/01/22 11:32:56;;;;;;;2.77;0.90;;;13.20;1.00;;;;;;4968801;28;20533;-68
2024/01/22 11:35:33;;;;;;;2.00;0.80;;;13.30;1.00;;;;;;4956168;29;20413;-67
2024/01/22 11:37:58;;;;;;;2.03;1.20;;;13.20;1.00;;;;;;4958500;28;20174;-70
2024/01/22 11:40:50;;;;;;;1.77;0.87;;;13.20;1.00;;;;;;4959660;28;20429;-68
2024/01/22 11:43:17;;;;;;;1.60;0.60;;;13.30;1.00;;;;;;4959857;28;20225;-69
2024/01/22 11:45:44;;;;;;;1.50;0.50;;;13.40;1.00;;;;;;4959156;28;20424;-69
2024/01/22 11:48:23;;;;;;;3.97;0.80;;;13.20;1.00;;;;;;4959994;28;20925;-69
2024/01/22 11:51:07;;;;;;;1.70;0.60;;;13.30;1.00;;;;;;4960191;28;20500;-68
2024/01/22 11:53:49;;;;;;;1.87;0.70;;;13.10;1.00;;;;;;4960422;28;20497;-71
2024/01/22 11:56:15;;;;;;;1.70;0.60;;;13.00;1.00;;;;;;4959515;28;20421;-68
2024/01/22 11:58:40;;;;;;;1.60;0.73;;;13.00;1.00;;;;;;4958810;29;20477;-68
2024/01/22 12:01:11;;;;;;;1.80;0.80;;;12.90;1.00;;;;;;4960268;28;20453;-69
2024/01/22 12:03:37;;;;;;;1.80;0.70;;;12.90;1.00;;;;;;4959081;28;20249;-67
2024/01/22 12:06:05;;;;;;;1.67;0.67;;;12.90;1.00;;;;;;4978164;28;20436;-68
2024/01/22 12:08:32;;;;;;;1.97;0.83;;;12.90;1.00;;;;;;4978134;28;20479;-67
2024/01/22 12:11:08;;;;;;;1.80;0.90;;;12.80;1.00;;;;;;4977047;28;20464;-68
2024/01/22 12:13:39;;;;;;;1.80;0.90;;;12.80;1.00;;;;;;4976376;28;20527;-68
2024/01/22 12:16:13;;;;;;;1.47;0.50;;;12.80;1.00;;;;;;4978021;28;20496;-68
2024/01/22 12:18:39;;;;;;;2.80;0.80;;;12.70;1.00;;;;;;4978932;28;20417;-69
2024/01/22 12:21:05;;;;;;;1.70;0.70;;;12.70;1.00;;;;;;4979616;28;20471;-67
2024/01/22 12:23:32;;;;;;;3.03;0.77;;;12.60;1.00;;;;;;4979673;28;20205;-68
2024/01/22 12:25:59;;;;;;;1.60;0.70;;;12.50;1.00;;;;;;4968055;28;20484;-69
2024/01/22 12:28:28;;;;;;;1.80;0.70;;;12.60;1.00;;;;;;4959275;28;20837;-78
2024/01/22 12:31:03;;;;;;;1.80;0.70;;;12.50;1.00;;;;;;4956237;28;20461;-69
2024/01/22 12:33:30;;;;;;;1.73;0.77;;;12.50;1.00;;;;;;4958994;28;20429;-69
2024/01/22 12:36:09;;;;;;;1.80;0.60;;;12.40;2.40;;;;;;4979284;28;20524;-69
2024/01/22 12:38:46;;;;;;;1.80;0.73;;;12.30;3.70;;;;;;4976578;28;20428;-70
2024/01/22 12:41:14;;;;;;;1.50;0.70;;;12.20;5.70;;;;;;4981399;28;20412;-70
2024/01/22 12:43:40;;;;;;;2.00;0.70;;;12.10;5.80;;;;;;4979841;28;20484;-69
2024/01/22 12:46:07;;;;;;;2.77;0.90;;;12.10;5.90;;;;;;4978596;28;20505;-68
2024/01/22 12:48:33;;;;;;;2.27;0.90;;;12.20;5.60;;;;;;4969423;28;20433;-69
2024/01/22 12:50:59;;;;;;;2.93;0.80;;;12.20;5.90;;;;;;4961878;28;20904;-69
2024/01/22 12:53:25;;;;;;;2.03;0.73;;;12.40;5.60;;;;;;4966283;28;20546;-69
2024/01/22 12:55:51;;;;;;;1.70;0.70;;;12.20;5.70;;;;;;4973726;28;20459;-69
2024/01/22 12:58:16;;;;;;;1.80;0.80;;;12.10;6.70;;;;;;4971920;28;20184;-70
2024/01/22 13:00:42;;;;;;;3.13;1.07;;;12.00;8.00;;;;;;4955982;28;20222;-70
2024/01/22 13:03:08;;;;;;;1.93;0.87;;;11.90;9.70;;;;;;4981592;23;20236;-71